• Join FlightAware (Why Join?)
  • Login
  • US Flag 
09:19PM EDT


 

Airport Tracker/Info


-or-


 

Live Flight TrackerFlight Track Log ✈ UCA809 ✈ 08-Jun-2014 ✈ KIAD - KEWR

Flight Track Log - Related Links

Times and Time Zones

All times are in EDT time to prevent confusion due to time zone crossing. See the UCA809 flight status page for this flight to view local times or setup timezone preferences in your user account.

Time Position Orientation Groundspeed Altitude Reporting Facility
EDT Latitude Longitude Course Direction KTS MPH feet Rate Location/Type
06:10AM 38.9667 -77.5000 303° West 137 158 1,700  Level Potomac TRACON
06:11AM 38.9833 -77.5333 303° West 169 194 2,900 1,200 Climbing Potomac TRACON
06:12AM 39.0333 -77.5833 322° Northwest 182 209 4,100 1,260 Climbing Potomac TRACON
06:13AM 39.0667 -77.6000 339° North 201 231 5,300 1,320 Climbing Potomac TRACON
06:14AM 39.1167 -77.5833 14° North 210 242 6,700 1,200 Climbing Potomac TRACON
06:15AM 39.1333 -77.5000 76° East 223 257 7,800 1,080 Climbing Potomac TRACON
06:16AM 39.1667 -77.4333 57° Northeast 224 258 9,000 540 Climbing Potomac TRACON
06:17AM 39.2000 -77.3500 63° Northeast 257 296 9,000 600 Level Potomac TRACON
06:18AM 39.2333 -77.2833 57° Northeast 241 277 10,100 1,080 Climbing Potomac TRACON
06:19AM 39.2667 -77.2167 57° Northeast 234 269 11,000 360 Climbing Potomac TRACON
06:20AM 39.3000 -77.1333 63° Northeast 261 300 10,900 -60 Descending Potomac TRACON
06:21AM 39.3333 -77.0500 63° Northeast 271 312 10,900  Level Potomac TRACON
06:22AM 39.3500 -76.9667 75° East 267 307 10,900  Level Potomac TRACON
06:23AM 39.3667 -76.8667 78° East 269 310 10,900  Level Potomac TRACON
06:24AM 39.3667 -76.7667 90° East 271 312 11,000  Climbing Potomac TRACON
06:25AM 39.3833 -76.6833 75° East 266 306 10,900 -60 Descending Potomac TRACON
06:26AM 39.4000 -76.6000 75° East 269 310 10,900  Level Potomac TRACON
06:27AM 39.4000 -76.5000 90° East 263 303 10,900  Level Potomac TRACON
06:28AM 39.4167 -76.4000 78° East 264 304 10,900  Level Potomac TRACON
06:30AM 39.4667 -76.1833 73° East 259 298 11,100  Climbing Philadelphia TRACON
06:31AM 39.4833 -76.1167 72° East 262 302 11,000 -60 Descending Philadelphia TRACON
06:32AM 39.5167 -76.0333 63° Northeast 259 298 11,000  Level Philadelphia TRACON
06:33AM 39.5500 -75.9333 67° East 258 297 11,000  Level Philadelphia TRACON
06:34AM 39.5667 -75.8500 75° East 259 298 11,100  Climbing Philadelphia TRACON
06:35AM 39.6000 -75.7667 63° Northeast 258 297 11,000  Descending Philadelphia TRACON
06:36AM 39.6333 -75.6833 63° Northeast 258 297 11,100  Climbing Philadelphia TRACON
06:37AM 39.6500 -75.6000 75° East 257 296 11,000 -60 Descending Philadelphia TRACON
06:38AM 39.6833 -75.5167 63° Northeast 257 296 11,000  Level Philadelphia TRACON
06:39AM 39.7167 -75.4333 63° Northeast 257 296 11,100  Climbing Philadelphia TRACON
06:40AM 39.7500 -75.3333 67° East 256 295 11,000 -60 Descending Philadelphia TRACON
06:41AM 39.7667 -75.2333 78° East 256 295 11,000 -240 Level Philadelphia TRACON
06:42AM 39.8000 -75.1500 62° Northeast 259 298 10,500 -660 Descending Philadelphia TRACON
06:43AM 39.8333 -75.0667 62° Northeast 278 320 9,700 -840 Descending Philadelphia TRACON
06:44AM 39.8667 -74.9667 66° East 278 320 8,900 -840 Descending Philadelphia TRACON
06:46AM 39.9833 -74.8167 45° Northeast 267 307 7,100 -600 Descending New York TRACON
06:47AM 40.0333 -74.7500 46° Northeast 259 298 7,000 -60 Descending New York TRACON
06:48AM 40.0667 -74.6833 57° Northeast 253 291 7,000  Level New York TRACON
06:49AM 40.1500 -74.6500 17° North 248 285 7,000  Level New York TRACON
06:50AM 40.2000 -74.6333 14° North 246 283 7,000  Level New York TRACON
06:51AM 40.2667 -74.6167 11° North 248 285 7,000 -300 Level New York TRACON
06:52AM 40.3333 -74.6000 11° North 256 295 6,400 -720 Descending New York TRACON
06:53AM 40.4167 -74.5833 North 269 310 5,600 -840 Descending New York TRACON
06:54AM 40.4833 -74.5333 30° Northeast 261 300 4,700 -1,080 Descending New York TRACON
06:55AM 40.5333 -74.4833 37° Northeast 257 296 3,500 -900 Descending New York TRACON
06:56AM 40.6000 -74.4500 21° North 251 289 3,000 -300 Descending New York TRACON
06:57AM 40.6667 -74.4000 30° Northeast 245 282 3,000  Level New York TRACON
06:58AM 40.7167 -74.3500 37° Northeast 242 278 3,000 -60 Level New York TRACON
06:59AM 40.7667 -74.3000 37° Northeast 248 285 2,900  Descending New York TRACON
07:00AM 40.8000 -74.2167 62° Northeast 238 274 3,000 -300 Climbing New York TRACON
07:01AM 40.7667 -74.1667 131° Southeast 196 226 2,300 -900 Descending New York TRACON
07:02AM 40.7500 -74.1333 123° Southeast 139 160 1,400 -900 Descending New York TRACON
07:03AM 40.7167 -74.1500 201° Southwest 120 138 600 -840 Descending New York TRACON
07:05AM 40.6925 -74.1687 201° Southwest  Level Estimated
07:12AM 40.6925 -74.1687 201° Southwest  Level Estimated